sensor_id;sensor_type;location;lat;lon;timestamp;P1;durP1;ratioP1;P2;durP2;ratioP2
6537;SDS011;3302;52.508;13.454;2023-03-14T00:01:56;1.77;;;1.10;;
6537;SDS011;3302;52.508;13.454;2023-03-14T00:04:22;1.60;;;1.40;;
6537;SDS011;3302;52.508;13.454;2023-03-14T00:06:48;1.93;;;1.30;;
6537;SDS011;3302;52.508;13.454;2023-03-14T00:09:15;2.60;;;1.43;;
6537;SDS011;3302;52.508;13.454;2023-03-14T00:11:41;1.40;;;1.13;;
6537;SDS011;3302;52.508;13.454;2023-03-14T00:14:07;1.37;;;1.27;;
6537;SDS011;3302;52.508;13.454;2023-03-14T00:16:33;1.80;;;1.20;;
6537;SDS011;3302;52.508;13.454;2023-03-14T00:18:59;3.73;;;1.13;;
6537;SDS011;3302;52.508;13.454;2023-03-14T00:21:25;2.60;;;1.37;;
6537;SDS011;3302;52.508;13.454;2023-03-14T00:23:51;1.33;;;1.23;;
6537;SDS011;3302;52.508;13.454;2023-03-14T00:26:17;1.60;;;1.30;;
6537;SDS011;3302;52.508;13.454;2023-03-14T00:28:45;2.87;;;1.10;;
6537;SDS011;3302;52.508;13.454;2023-03-14T00:31:12;2.07;;;1.10;;
6537;SDS011;3302;52.508;13.454;2023-03-14T00:33:40;1.73;;;1.13;;
6537;SDS011;3302;52.508;13.454;2023-03-14T00:36:08;1.60;;;1.23;;
6537;SDS011;3302;52.508;13.454;2023-03-14T00:38:36;1.87;;;1.50;;
6537;SDS011;3302;52.508;13.454;2023-03-14T00:41:03;1.40;;;1.20;;
6537;SDS011;3302;52.508;13.454;2023-03-14T00:43:32;1.60;;;1.23;;
6537;SDS011;3302;52.508;13.454;2023-03-14T00:45:58;2.60;;;1.60;;
6537;SDS011;3302;52.508;13.454;2023-03-14T00:48:24;2.23;;;1.20;;
6537;SDS011;3302;52.508;13.454;2023-03-14T00:50:50;2.00;;;1.20;;
6537;SDS011;3302;52.508;13.454;2023-03-14T00:53:16;3.30;;;1.20;;
6537;SDS011;3302;52.508;13.454;2023-03-14T00:55:42;1.30;;;1.20;;
6537;SDS011;3302;52.508;13.454;2023-03-14T00:58:09;3.57;;;1.40;;
6537;SDS011;3302;52.508;13.454;2023-03-14T01:00:37;1.70;;;1.20;;
6537;SDS011;3302;52.508;13.454;2023-03-14T01:03:03;1.37;;;1.20;;
6537;SDS011;3302;52.508;13.454;2023-03-14T01:05:29;1.60;;;1.07;;
6537;SDS011;3302;52.508;13.454;2023-03-14T01:07:55;1.47;;;1.20;;
6537;SDS011;3302;52.508;13.454;2023-03-14T01:10:21;1.67;;;1.10;;
6537;SDS011;3302;52.508;13.454;2023-03-14T01:12:47;1.30;;;1.20;;
6537;SDS011;3302;52.508;13.454;2023-03-14T01:15:14;1.63;;;1.30;;
6537;SDS011;3302;52.508;13.454;2023-03-14T01:17:40;2.40;;;1.30;;
6537;SDS011;3302;52.508;13.454;2023-03-14T01:20:07;1.97;;;1.30;;
6537;SDS011;3302;52.508;13.454;2023-03-14T01:22:35;1.67;;;1.37;;
6537;SDS011;3302;52.508;13.454;2023-03-14T01:25:04;1.53;;;1.10;;
6537;SDS011;3302;52.508;13.454;2023-03-14T01:27:30;1.40;;;1.20;;
6537;SDS011;3302;52.508;13.454;2023-03-14T01:29:55;1.50;;;1.20;;
6537;SDS011;3302;52.508;13.454;2023-03-14T01:32:21;1.60;;;1.20;;
6537;SDS011;3302;52.508;13.454;2023-03-14T01:34:49;2.13;;;1.20;;
6537;SDS011;3302;52.508;13.454;2023-03-14T01:37:14;1.27;;;1.10;;
6537;SDS011;3302;52.508;13.454;2023-03-14T01:39:40;1.40;;;1.20;;
6537;SDS011;3302;52.508;13.454;2023-03-14T01:42:06;2.30;;;1.20;;
6537;SDS011;3302;52.508;13.454;2023-03-14T01:44:51;1.40;;;1.20;;
6537;SDS011;3302;52.508;13.454;2023-03-14T01:47:18;1.73;;;1.07;;
6537;SDS011;3302;52.508;13.454;2023-03-14T01:49:45;1.77;;;1.20;;
6537;SDS011;3302;52.508;13.454;2023-03-14T01:52:19;2.33;;;1.23;;
6537;SDS011;3302;52.508;13.454;2023-03-14T01:55:04;1.33;;;1.20;;
6537;SDS011;3302;52.508;13.454;2023-03-14T01:57:36;2.67;;;1.37;;
6537;SDS011;3302;52.508;13.454;2023-03-14T02:00:11;2.60;;;1.20;;
6537;SDS011;3302;52.508;13.454;2023-03-14T02:02:43;1.53;;;1.10;;
6537;SDS011;3302;52.508;13.454;2023-03-14T02:05:12;3.23;;;1.10;;
6537;SDS011;3302;52.508;13.454;2023-03-14T02:07:51;1.80;;;1.20;;
6537;SDS011;3302;52.508;13.454;2023-03-14T02:10:19;1.67;;;1.20;;
6537;SDS011;3302;52.508;13.454;2023-03-14T02:12:48;1.30;;;1.10;;
6537;SDS011;3302;52.508;13.454;2023-03-14T02:15:15;2.07;;;1.13;;
6537;SDS011;3302;52.508;13.454;2023-03-14T02:17:42;1.80;;;0.97;;
6537;SDS011;3302;52.508;13.454;2023-03-14T02:22:37;1.00;;;0.90;;
6537;SDS011;3302;52.508;13.454;2023-03-14T02:28:02;1.93;;;1.20;;
6537;SDS011;3302;52.508;13.454;2023-03-14T02:30:28;1.60;;;1.00;;
6537;SDS011;3302;52.508;13.454;2023-03-14T02:33:06;1.70;;;1.20;;
6537;SDS011;3302;52.508;13.454;2023-03-14T02:35:39;2.30;;;1.10;;
6537;SDS011;3302;52.508;13.454;2023-03-14T02:40:40;1.10;;;1.00;;
6537;SDS011;3302;52.508;13.454;2023-03-14T02:43:06;1.70;;;1.10;;
6537;SDS011;3302;52.508;13.454;2023-03-14T02:48:15;1.50;;;1.30;;
6537;SDS011;3302;52.508;13.454;2023-03-14T02:50:45;1.53;;;1.00;;
6537;SDS011;3302;52.508;13.454;2023-03-14T02:53:14;1.83;;;1.37;;
6537;SDS011;3302;52.508;13.454;2023-03-14T02:55:44;1.63;;;0.93;;
6537;SDS011;3302;52.508;13.454;2023-03-14T02:58:11;1.10;;;1.00;;
6537;SDS011;3302;52.508;13.454;2023-03-14T03:00:37;1.83;;;1.10;;
6537;SDS011;3302;52.508;13.454;2023-03-14T03:03:03;1.20;;;1.10;;
6537;SDS011;3302;52.508;13.454;2023-03-14T03:05:31;1.87;;;1.00;;
6537;SDS011;3302;52.508;13.454;2023-03-14T03:07:57;1.23;;;1.00;;
6537;SDS011;3302;52.508;13.454;2023-03-14T03:10:23;2.07;;;0.97;;
6537;SDS011;3302;52.508;13.454;2023-03-14T03:12:49;1.30;;;1.03;;
6537;SDS011;3302;52.508;13.454;2023-03-14T03:15:16;3.10;;;1.20;;
6537;SDS011;3302;52.508;13.454;2023-03-14T03:17:42;1.00;;;0.80;;
6537;SDS011;3302;52.508;13.454;2023-03-14T03:20:09;1.10;;;1.00;;
6537;SDS011;3302;52.508;13.454;2023-03-14T03:22:35;1.20;;;1.00;;
6537;SDS011;3302;52.508;13.454;2023-03-14T03:25:02;0.90;;;0.80;;
6537;SDS011;3302;52.508;13.454;2023-03-14T03:30:51;1.73;;;1.07;;
6537;SDS011;3302;52.508;13.454;2023-03-14T03:33:16;1.07;;;0.97;;
6537;SDS011;3302;52.508;13.454;2023-03-14T03:35:43;1.07;;;0.90;;
6537;SDS011;3302;52.508;13.454;2023-03-14T03:38:10;1.80;;;1.00;;
6537;SDS011;3302;52.508;13.454;2023-03-14T03:40:37;1.87;;;1.03;;
6537;SDS011;3302;52.508;13.454;2023-03-14T03:43:03;1.10;;;0.90;;
6537;SDS011;3302;52.508;13.454;2023-03-14T03:45:29;1.73;;;1.07;;
6537;SDS011;3302;52.508;13.454;2023-03-14T03:47:55;1.20;;;1.00;;
6537;SDS011;3302;52.508;13.454;2023-03-14T03:50:21;1.80;;;1.17;;
6537;SDS011;3302;52.508;13.454;2023-03-14T03:52:47;2.33;;;1.30;;
6537;SDS011;3302;52.508;13.454;2023-03-14T03:55:13;1.10;;;1.00;;
6537;SDS011;3302;52.508;13.454;2023-03-14T03:57:39;1.40;;;1.10;;
6537;SDS011;3302;52.508;13.454;2023-03-14T04:00:05;1.57;;;1.10;;
6537;SDS011;3302;52.508;13.454;2023-03-14T04:02:34;2.80;;;0.90;;
6537;SDS011;3302;52.508;13.454;2023-03-14T04:05:00;1.30;;;1.20;;
6537;SDS011;3302;52.508;13.454;2023-03-14T04:07:25;1.50;;;1.00;;
6537;SDS011;3302;52.508;13.454;2023-03-14T04:09:51;2.20;;;1.00;;
6537;SDS011;3302;52.508;13.454;2023-03-14T04:12:17;2.03;;;1.07;;
6537;SDS011;3302;52.508;13.454;2023-03-14T04:14:43;1.00;;;0.90;;
6537;SDS011;3302;52.508;13.454;2023-03-14T04:17:10;1.90;;;1.07;;
6537;SDS011;3302;52.508;13.454;2023-03-14T04:19:36;1.07;;;0.97;;
6537;SDS011;3302;52.508;13.454;2023-03-14T04:22:01;2.10;;;0.87;;
6537;SDS011;3302;52.508;13.454;2023-03-14T04:24:27;1.33;;;1.10;;
6537;SDS011;3302;52.508;13.454;2023-03-14T04:26:53;1.63;;;1.00;;
6537;SDS011;3302;52.508;13.454;2023-03-14T04:29:19;2.07;;;1.00;;
6537;SDS011;3302;52.508;13.454;2023-03-14T04:31:45;1.30;;;0.97;;
6537;SDS011;3302;52.508;13.454;2023-03-14T04:34:10;1.00;;;0.90;;
6537;SDS011;3302;52.508;13.454;2023-03-14T04:36:36;2.13;;;1.30;;
6537;SDS011;3302;52.508;13.454;2023-03-14T04:39:02;2.80;;;1.10;;
6537;SDS011;3302;52.508;13.454;2023-03-14T04:41:29;1.30;;;0.97;;
6537;SDS011;3302;52.508;13.454;2023-03-14T04:43:55;1.13;;;1.00;;
6537;SDS011;3302;52.508;13.454;2023-03-14T04:46:21;1.67;;;1.07;;
6537;SDS011;3302;52.508;13.454;2023-03-14T04:48:47;2.50;;;1.20;;
6537;SDS011;3302;52.508;13.454;2023-03-14T04:51:13;2.17;;;1.20;;
6537;SDS011;3302;52.508;13.454;2023-03-14T04:53:38;1.23;;;1.10;;
6537;SDS011;3302;52.508;13.454;2023-03-14T04:56:05;1.53;;;0.90;;
6537;SDS011;3302;52.508;13.454;2023-03-14T04:58:31;1.77;;;1.10;;
6537;SDS011;3302;52.508;13.454;2023-03-14T05:01:01;2.17;;;1.13;;
6537;SDS011;3302;52.508;13.454;2023-03-14T05:03:30;1.43;;;1.10;;
6537;SDS011;3302;52.508;13.454;2023-03-14T05:05:56;1.47;;;1.10;;
6537;SDS011;3302;52.508;13.454;2023-03-14T05:08:24;1.50;;;1.10;;
6537;SDS011;3302;52.508;13.454;2023-03-14T05:10:53;1.40;;;1.20;;
6537;SDS011;3302;52.508;13.454;2023-03-14T05:13:20;1.60;;;1.10;;
6537;SDS011;3302;52.508;13.454;2023-03-14T05:15:46;2.17;;;1.10;;
6537;SDS011;3302;52.508;13.454;2023-03-14T05:18:13;1.90;;;1.07;;
6537;SDS011;3302;52.508;13.454;2023-03-14T05:20:38;1.73;;;0.97;;
6537;SDS011;3302;52.508;13.454;2023-03-14T05:23:04;1.50;;;1.10;;
6537;SDS011;3302;52.508;13.454;2023-03-14T05:25:30;2.23;;;1.03;;
6537;SDS011;3302;52.508;13.454;2023-03-14T05:27:56;2.33;;;1.60;;
6537;SDS011;3302;52.508;13.454;2023-03-14T05:30:22;3.00;;;1.30;;
6537;SDS011;3302;52.508;13.454;2023-03-14T05:32:48;1.83;;;1.00;;
6537;SDS011;3302;52.508;13.454;2023-03-14T05:35:14;1.50;;;1.10;;
6537;SDS011;3302;52.508;13.454;2023-03-14T05:37:39;2.00;;;1.20;;
6537;SDS011;3302;52.508;13.454;2023-03-14T05:40:06;1.50;;;1.20;;
6537;SDS011;3302;52.508;13.454;2023-03-14T05:42:32;1.37;;;1.00;;
6537;SDS011;3302;52.508;13.454;2023-03-14T05:44:58;2.07;;;1.20;;
6537;SDS011;3302;52.508;13.454;2023-03-14T05:47:24;2.00;;;1.20;;
6537;SDS011;3302;52.508;13.454;2023-03-14T05:49:50;2.73;;;1.17;;
6537;SDS011;3302;52.508;13.454;2023-03-14T05:52:16;1.73;;;1.20;;
6537;SDS011;3302;52.508;13.454;2023-03-14T05:54:41;1.67;;;1.33;;
6537;SDS011;3302;52.508;13.454;2023-03-14T05:57:07;1.73;;;1.00;;
6537;SDS011;3302;52.508;13.454;2023-03-14T05:59:33;1.83;;;1.20;;
6537;SDS011;3302;52.508;13.454;2023-03-14T06:01:59;1.60;;;1.00;;
6537;SDS011;3302;52.508;13.454;2023-03-14T06:04:25;1.20;;;1.00;;
6537;SDS011;3302;52.508;13.454;2023-03-14T06:06:51;1.90;;;1.00;;
6537;SDS011;3302;52.508;13.454;2023-03-14T06:09:17;1.50;;;1.17;;
6537;SDS011;3302;52.508;13.454;2023-03-14T06:11:45;2.77;;;1.30;;
6537;SDS011;3302;52.508;13.454;2023-03-14T06:14:11;4.00;;;1.00;;
6537;SDS011;3302;52.508;13.454;2023-03-14T06:16:37;2.60;;;1.20;;
6537;SDS011;3302;52.508;13.454;2023-03-14T06:19:03;2.87;;;1.10;;
6537;SDS011;3302;52.508;13.454;2023-03-14T06:21:29;2.57;;;1.17;;
6537;SDS011;3302;52.508;13.454;2023-03-14T06:23:55;1.43;;;1.20;;
6537;SDS011;3302;52.508;13.454;2023-03-14T06:26:21;2.20;;;1.30;;
6537;SDS011;3302;52.508;13.454;2023-03-14T06:28:48;1.63;;;1.17;;
6537;SDS011;3302;52.508;13.454;2023-03-14T06:31:14;1.30;;;1.10;;
6537;SDS011;3302;52.508;13.454;2023-03-14T06:33:40;3.23;;;1.70;;
6537;SDS011;3302;52.508;13.454;2023-03-14T06:36:06;2.70;;;1.53;;
6537;SDS011;3302;52.508;13.454;2023-03-14T06:38:32;3.07;;;1.23;;
6537;SDS011;3302;52.508;13.454;2023-03-14T06:41:04;3.97;;;1.87;;
6537;SDS011;3302;52.508;13.454;2023-03-14T06:43:31;3.13;;;1.63;;
6537;SDS011;3302;52.508;13.454;2023-03-14T06:45:57;2.53;;;1.50;;
6537;SDS011;3302;52.508;13.454;2023-03-14T06:48:22;3.10;;;1.30;;
6537;SDS011;3302;52.508;13.454;2023-03-14T06:50:48;2.40;;;1.20;;
6537;SDS011;3302;52.508;13.454;2023-03-14T06:53:14;2.40;;;1.10;;
6537;SDS011;3302;52.508;13.454;2023-03-14T06:55:40;2.43;;;1.33;;
6537;SDS011;3302;52.508;13.454;2023-03-14T06:58:06;2.77;;;1.30;;
6537;SDS011;3302;52.508;13.454;2023-03-14T07:00:33;2.93;;;1.30;;
6537;SDS011;3302;52.508;13.454;2023-03-14T07:03:00;2.70;;;1.40;;
6537;SDS011;3302;52.508;13.454;2023-03-14T07:05:26;2.97;;;1.23;;
6537;SDS011;3302;52.508;13.454;2023-03-14T07:07:52;2.30;;;1.37;;
6537;SDS011;3302;52.508;13.454;2023-03-14T07:10:18;2.57;;;1.63;;
6537;SDS011;3302;52.508;13.454;2023-03-14T07:12:44;1.77;;;1.20;;
6537;SDS011;3302;52.508;13.454;2023-03-14T07:15:10;2.70;;;1.30;;
6537;SDS011;3302;52.508;13.454;2023-03-14T07:17:36;2.93;;;1.47;;
6537;SDS011;3302;52.508;13.454;2023-03-14T07:20:02;3.63;;;1.30;;
6537;SDS011;3302;52.508;13.454;2023-03-14T07:22:30;2.37;;;1.23;;
6537;SDS011;3302;52.508;13.454;2023-03-14T07:24:56;2.13;;;1.20;;
6537;SDS011;3302;52.508;13.454;2023-03-14T07:27:22;2.47;;;1.30;;
6537;SDS011;3302;52.508;13.454;2023-03-14T07:29:48;3.80;;;1.53;;
6537;SDS011;3302;52.508;13.454;2023-03-14T07:32:13;3.07;;;1.60;;
6537;SDS011;3302;52.508;13.454;2023-03-14T07:34:43;2.00;;;1.40;;
6537;SDS011;3302;52.508;13.454;2023-03-14T07:37:09;2.73;;;1.53;;
6537;SDS011;3302;52.508;13.454;2023-03-14T07:39:35;3.07;;;1.30;;
6537;SDS011;3302;52.508;13.454;2023-03-14T07:42:01;3.77;;;1.50;;
6537;SDS011;3302;52.508;13.454;2023-03-14T07:44:26;2.23;;;1.30;;
6537;SDS011;3302;52.508;13.454;2023-03-14T07:46:52;4.47;;;1.37;;
6537;SDS011;3302;52.508;13.454;2023-03-14T07:49:18;3.53;;;1.70;;
6537;SDS011;3302;52.508;13.454;2023-03-14T07:51:47;2.40;;;1.50;;
6537;SDS011;3302;52.508;13.454;2023-03-14T07:54:13;4.13;;;1.50;;
6537;SDS011;3302;52.508;13.454;2023-03-14T07:56:39;3.07;;;1.70;;
6537;SDS011;3302;52.508;13.454;2023-03-14T07:59:05;4.50;;;1.57;;
6537;SDS011;3302;52.508;13.454;2023-03-14T08:01:31;4.53;;;1.50;;
6537;SDS011;3302;52.508;13.454;2023-03-14T08:03:56;4.20;;;1.40;;
6537;SDS011;3302;52.508;13.454;2023-03-14T08:06:22;4.27;;;1.50;;
6537;SDS011;3302;52.508;13.454;2023-03-14T08:08:48;3.33;;;1.53;;
6537;SDS011;3302;52.508;13.454;2023-03-14T08:11:14;2.87;;;1.40;;
6537;SDS011;3302;52.508;13.454;2023-03-14T08:13:39;3.13;;;1.43;;
6537;SDS011;3302;52.508;13.454;2023-03-14T08:16:05;4.37;;;1.73;;
6537;SDS011;3302;52.508;13.454;2023-03-14T08:18:31;3.63;;;1.50;;
6537;SDS011;3302;52.508;13.454;2023-03-14T08:20:57;3.00;;;1.67;;
6537;SDS011;3302;52.508;13.454;2023-03-14T08:23:23;5.30;;;1.70;;
6537;SDS011;3302;52.508;13.454;2023-03-14T08:25:50;3.63;;;1.60;;
6537;SDS011;3302;52.508;13.454;2023-03-14T08:28:17;3.77;;;1.50;;
6537;SDS011;3302;52.508;13.454;2023-03-14T08:30:43;2.17;;;1.10;;
6537;SDS011;3302;52.508;13.454;2023-03-14T08:33:09;4.67;;;1.40;;
6537;SDS011;3302;52.508;13.454;2023-03-14T08:35:35;3.00;;;1.40;;
6537;SDS011;3302;52.508;13.454;2023-03-14T08:38:02;4.27;;;1.40;;
6537;SDS011;3302;52.508;13.454;2023-03-14T08:40:29;3.83;;;1.40;;
6537;SDS011;3302;52.508;13.454;2023-03-14T08:42:54;3.20;;;1.70;;
6537;SDS011;3302;52.508;13.454;2023-03-14T08:45:20;4.07;;;2.00;;
6537;SDS011;3302;52.508;13.454;2023-03-14T08:47:46;3.77;;;1.40;;
6537;SDS011;3302;52.508;13.454;2023-03-14T08:50:13;3.63;;;1.60;;
6537;SDS011;3302;52.508;13.454;2023-03-14T08:52:39;3.00;;;1.33;;
6537;SDS011;3302;52.508;13.454;2023-03-14T08:55:06;2.80;;;1.40;;
6537;SDS011;3302;52.508;13.454;2023-03-14T08:57:33;3.50;;;1.70;;
6537;SDS011;3302;52.508;13.454;2023-03-14T08:59:58;3.67;;;2.10;;
6537;SDS011;3302;52.508;13.454;2023-03-14T09:02:25;3.77;;;1.30;;
6537;SDS011;3302;52.508;13.454;2023-03-14T09:04:51;2.43;;;1.40;;
6537;SDS011;3302;52.508;13.454;2023-03-14T09:07:17;4.07;;;2.03;;
6537;SDS011;3302;52.508;13.454;2023-03-14T09:09:44;2.90;;;1.90;;
6537;SDS011;3302;52.508;13.454;2023-03-14T09:12:10;2.80;;;1.40;;
6537;SDS011;3302;52.508;13.454;2023-03-14T09:14:36;4.00;;;1.47;;
6537;SDS011;3302;52.508;13.454;2023-03-14T09:17:03;5.23;;;2.10;;
6537;SDS011;3302;52.508;13.454;2023-03-14T09:19:29;4.23;;;1.63;;
6537;SDS011;3302;52.508;13.454;2023-03-14T09:21:55;3.30;;;1.63;;
6537;SDS011;3302;52.508;13.454;2023-03-14T09:24:21;5.40;;;1.60;;
6537;SDS011;3302;52.508;13.454;2023-03-14T09:26:47;3.57;;;1.37;;
6537;SDS011;3302;52.508;13.454;2023-03-14T09:29:13;2.93;;;1.50;;
6537;SDS011;3302;52.508;13.454;2023-03-14T09:31:39;4.27;;;1.67;;
6537;SDS011;3302;52.508;13.454;2023-03-14T09:34:05;3.17;;;1.40;;
6537;SDS011;3302;52.508;13.454;2023-03-14T09:36:30;4.90;;;1.77;;
6537;SDS011;3302;52.508;13.454;2023-03-14T09:38:56;5.00;;;1.47;;
6537;SDS011;3302;52.508;13.454;2023-03-14T09:41:29;4.10;;;1.90;;
6537;SDS011;3302;52.508;13.454;2023-03-14T09:44:06;3.03;;;1.40;;
6537;SDS011;3302;52.508;13.454;2023-03-14T09:47:01;4.00;;;1.80;;
6537;SDS011;3302;52.508;13.454;2023-03-14T09:49:32;4.60;;;1.67;;
6537;SDS011;3302;52.508;13.454;2023-03-14T09:52:00;3.60;;;1.77;;
6537;SDS011;3302;52.508;13.454;2023-03-14T09:54:31;2.03;;;1.10;;
6537;SDS011;3302;52.508;13.454;2023-03-14T09:57:11;2.93;;;1.30;;
6537;SDS011;3302;52.508;13.454;2023-03-14T09:59:41;4.13;;;1.40;;
6537;SDS011;3302;52.508;13.454;2023-03-14T10:02:22;4.70;;;1.50;;
6537;SDS011;3302;52.508;13.454;2023-03-14T10:04:50;3.60;;;1.33;;
6537;SDS011;3302;52.508;13.454;2023-03-14T10:07:24;3.07;;;1.13;;
6537;SDS011;3302;52.508;13.454;2023-03-14T10:09:51;2.50;;;1.30;;
6537;SDS011;3302;52.508;13.454;2023-03-14T10:12:17;2.73;;;1.33;;
6537;SDS011;3302;52.508;13.454;2023-03-14T10:14:45;5.13;;;1.70;;
6537;SDS011;3302;52.508;13.454;2023-03-14T10:17:13;4.53;;;1.57;;
6537;SDS011;3302;52.508;13.454;2023-03-14T10:19:51;2.00;;;1.30;;
6537;SDS011;3302;52.508;13.454;2023-03-14T10:22:23;4.10;;;1.40;;
6537;SDS011;3302;52.508;13.454;2023-03-14T10:24:52;3.20;;;1.40;;
6537;SDS011;3302;52.508;13.454;2023-03-14T10:27:22;2.87;;;1.37;;
6537;SDS011;3302;52.508;13.454;2023-03-14T10:29:55;3.03;;;1.43;;
6537;SDS011;3302;52.508;13.454;2023-03-14T10:32:23;3.17;;;1.33;;
6537;SDS011;3302;52.508;13.454;2023-03-14T10:35:04;1.33;;;1.00;;
6537;SDS011;3302;52.508;13.454;2023-03-14T10:37:31;3.07;;;1.67;;
6537;SDS011;3302;52.508;13.454;2023-03-14T10:40:00;3.97;;;1.37;;
6537;SDS011;3302;52.508;13.454;2023-03-14T10:42:34;2.40;;;1.27;;
6537;SDS011;3302;52.508;13.454;2023-03-14T10:45:20;3.20;;;1.50;;
6537;SDS011;3302;52.508;13.454;2023-03-14T10:47:48;2.60;;;1.20;;
6537;SDS011;3302;52.508;13.454;2023-03-14T10:50:30;2.87;;;1.27;;
6537;SDS011;3302;52.508;13.454;2023-03-14T10:52:57;3.93;;;1.40;;
6537;SDS011;3302;52.508;13.454;2023-03-14T10:55:41;2.53;;;1.20;;
6537;SDS011;3302;52.508;13.454;2023-03-14T10:58:24;3.10;;;1.40;;
6537;SDS011;3302;52.508;13.454;2023-03-14T11:01:05;3.77;;;1.43;;
6537;SDS011;3302;52.508;13.454;2023-03-14T11:04:07;3.20;;;1.30;;
6537;SDS011;3302;52.508;13.454;2023-03-14T11:09:42;2.00;;;1.20;;
6537;SDS011;3302;52.508;13.454;2023-03-14T11:17:56;3.87;;;1.43;;
6537;SDS011;3302;52.508;13.454;2023-03-14T11:23:42;2.40;;;1.13;;
6537;SDS011;3302;52.508;13.454;2023-03-14T11:32:04;3.23;;;1.20;;
6537;SDS011;3302;52.508;13.454;2023-03-14T11:34:47;2.80;;;1.47;;
6537;SDS011;3302;52.508;13.454;2023-03-14T11:37:37;2.80;;;1.30;;
6537;SDS011;3302;52.508;13.454;2023-03-14T11:40:20;3.27;;;2.13;;
6537;SDS011;3302;52.508;13.454;2023-03-14T11:43:06;2.03;;;1.27;;
6537;SDS011;3302;52.508;13.454;2023-03-14T11:45:35;1.60;;;1.23;;
6537;SDS011;3302;52.508;13.454;2023-03-14T11:50:48;1.73;;;1.20;;
6537;SDS011;3302;52.508;13.454;2023-03-14T11:53:22;2.50;;;1.23;;
6537;SDS011;3302;52.508;13.454;2023-03-14T11:56:01;1.90;;;1.00;;
6537;SDS011;3302;52.508;13.454;2023-03-14T11:58:31;2.50;;;1.10;;
6537;SDS011;3302;52.508;13.454;2023-03-14T12:01:03;1.40;;;0.90;;
6537;SDS011;3302;52.508;13.454;2023-03-14T12:06:35;3.20;;;1.50;;
6537;SDS011;3302;52.508;13.454;2023-03-14T12:09:03;3.23;;;1.10;;
6537;SDS011;3302;52.508;13.454;2023-03-14T12:16:58;3.03;;;1.33;;
6537;SDS011;3302;52.508;13.454;2023-03-14T12:19:31;2.07;;;1.50;;
6537;SDS011;3302;52.508;13.454;2023-03-14T12:22:00;1.43;;;1.00;;
6537;SDS011;3302;52.508;13.454;2023-03-14T12:24:34;2.23;;;1.30;;
6537;SDS011;3302;52.508;13.454;2023-03-14T12:27:03;1.47;;;1.00;;
6537;SDS011;3302;52.508;13.454;2023-03-14T12:29:30;3.40;;;1.47;;
6537;SDS011;3302;52.508;13.454;2023-03-14T12:34:34;2.60;;;1.30;;
6537;SDS011;3302;52.508;13.454;2023-03-14T12:42:12;2.23;;;1.60;;
6537;SDS011;3302;52.508;13.454;2023-03-14T12:45:31;2.47;;;1.40;;
6537;SDS011;3302;52.508;13.454;2023-03-14T12:48:00;3.07;;;1.30;;
6537;SDS011;3302;52.508;13.454;2023-03-14T13:02:01;5.20;;;1.70;;
6537;SDS011;3302;52.508;13.454;2023-03-14T13:04:44;3.33;;;1.27;;
6537;SDS011;3302;52.508;13.454;2023-03-14T13:07:31;1.50;;;1.00;;
6537;SDS011;3302;52.508;13.454;2023-03-14T13:10:00;4.13;;;1.37;;
6537;SDS011;3302;52.508;13.454;2023-03-14T13:12:34;3.67;;;1.60;;
6537;SDS011;3302;52.508;13.454;2023-03-14T13:15:14;2.13;;;1.40;;
6537;SDS011;3302;52.508;13.454;2023-03-14T13:17:45;3.13;;;1.50;;
6537;SDS011;3302;52.508;13.454;2023-03-14T13:20:15;3.80;;;1.87;;
6537;SDS011;3302;52.508;13.454;2023-03-14T13:23:02;1.80;;;1.40;;
6537;SDS011;3302;52.508;13.454;2023-03-14T13:25:29;2.80;;;1.20;;
6537;SDS011;3302;52.508;13.454;2023-03-14T13:28:00;2.30;;;1.20;;
6537;SDS011;3302;52.508;13.454;2023-03-14T13:30:27;1.43;;;1.03;;
6537;SDS011;3302;52.508;13.454;2023-03-14T13:33:02;5.33;;;1.50;;
6537;SDS011;3302;52.508;13.454;2023-03-14T13:35:29;3.13;;;1.30;;
6537;SDS011;3302;52.508;13.454;2023-03-14T13:38:03;1.90;;;1.20;;
6537;SDS011;3302;52.508;13.454;2023-03-14T13:40:32;2.83;;;1.23;;
6537;SDS011;3302;52.508;13.454;2023-03-14T13:45:56;2.63;;;1.43;;
6537;SDS011;3302;52.508;13.454;2023-03-14T13:48:27;3.13;;;1.90;;
6537;SDS011;3302;52.508;13.454;2023-03-14T13:51:01;2.23;;;1.80;;
6537;SDS011;3302;52.508;13.454;2023-03-14T13:53:29;2.73;;;1.80;;
6537;SDS011;3302;52.508;13.454;2023-03-14T13:55:55;2.73;;;1.50;;
6537;SDS011;3302;52.508;13.454;2023-03-14T13:58:26;2.53;;;1.20;;
6537;SDS011;3302;52.508;13.454;2023-03-14T14:01:04;1.50;;;1.40;;
6537;SDS011;3302;52.508;13.454;2023-03-14T14:03:50;1.30;;;1.17;;
6537;SDS011;3302;52.508;13.454;2023-03-14T14:09:00;2.50;;;1.30;;
6537;SDS011;3302;52.508;13.454;2023-03-14T14:11:55;1.00;;;0.90;;
6537;SDS011;3302;52.508;13.454;2023-03-14T14:14:31;2.70;;;1.20;;
6537;SDS011;3302;52.508;13.454;2023-03-14T14:17:08;1.63;;;1.00;;
6537;SDS011;3302;52.508;13.454;2023-03-14T14:19:37;0.97;;;0.70;;
6537;SDS011;3302;52.508;13.454;2023-03-14T14:22:05;1.17;;;0.93;;
6537;SDS011;3302;52.508;13.454;2023-03-14T14:24:32;1.00;;;0.80;;
6537;SDS011;3302;52.508;13.454;2023-03-14T14:27:13;1.50;;;0.83;;
6537;SDS011;3302;52.508;13.454;2023-03-14T14:29:39;1.50;;;1.20;;
6537;SDS011;3302;52.508;13.454;2023-03-14T14:35:21;1.10;;;0.90;;
6537;SDS011;3302;52.508;13.454;2023-03-14T14:37:33;2.23;;;1.10;;
6537;SDS011;3302;52.508;13.454;2023-03-14T14:40:24;1.90;;;1.10;;
6537;SDS011;3302;52.508;13.454;2023-03-14T14:42:52;1.37;;;1.20;;
6537;SDS011;3302;52.508;13.454;2023-03-14T14:45:19;1.40;;;1.10;;
6537;SDS011;3302;52.508;13.454;2023-03-14T14:47:51;2.03;;;1.00;;
6537;SDS011;3302;52.508;13.454;2023-03-14T14:52:58;1.50;;;1.00;;
6537;SDS011;3302;52.508;13.454;2023-03-14T14:55:43;3.33;;;1.10;;
6537;SDS011;3302;52.508;13.454;2023-03-14T14:58:17;2.00;;;1.00;;
6537;SDS011;3302;52.508;13.454;2023-03-14T15:00:59;1.50;;;1.10;;
6537;SDS011;3302;52.508;13.454;2023-03-14T15:03:28;2.83;;;1.10;;
6537;SDS011;3302;52.508;13.454;2023-03-14T15:05:56;1.87;;;1.23;;
6537;SDS011;3302;52.508;13.454;2023-03-14T15:08:23;1.17;;;1.00;;
6537;SDS011;3302;52.508;13.454;2023-03-14T15:10:50;1.43;;;1.10;;
6537;SDS011;3302;52.508;13.454;2023-03-14T15:13:16;1.97;;;1.70;;
6537;SDS011;3302;52.508;13.454;2023-03-14T15:15:42;1.60;;;1.30;;
6537;SDS011;3302;52.508;13.454;2023-03-14T15:18:12;2.30;;;1.47;;
6537;SDS011;3302;52.508;13.454;2023-03-14T15:20:41;2.33;;;1.00;;
6537;SDS011;3302;52.508;13.454;2023-03-14T15:23:11;1.77;;;1.20;;
6537;SDS011;3302;52.508;13.454;2023-03-14T15:25:39;7.73;;;1.30;;
6537;SDS011;3302;52.508;13.454;2023-03-14T15:28:10;0.30;;;0.30;;
6537;SDS011;3302;52.508;13.454;2023-03-14T15:30:46;0.20;;;0.20;;
6537;SDS011;3302;52.508;13.454;2023-03-14T15:33:16;0.20;;;0.20;;
6537;SDS011;3302;52.508;13.454;2023-03-14T15:35:42;0.30;;;0.30;;
6537;SDS011;3302;52.508;13.454;2023-03-14T15:38:10;0.27;;;0.27;;
6537;SDS011;3302;52.508;13.454;2023-03-14T15:40:40;0.20;;;0.20;;
6537;SDS011;3302;52.508;13.454;2023-03-14T15:43:06;0.20;;;0.20;;
6537;SDS011;3302;52.508;13.454;2023-03-14T15:45:33;0.30;;;0.30;;
6537;SDS011;3302;52.508;13.454;2023-03-14T15:47:58;0.10;;;0.10;;
6537;SDS011;3302;52.508;13.454;2023-03-14T15:50:24;0.20;;;0.20;;
6537;SDS011;3302;52.508;13.454;2023-03-14T15:52:50;0.30;;;0.30;;
6537;SDS011;3302;52.508;13.454;2023-03-14T15:55:17;0.20;;;0.20;;
6537;SDS011;3302;52.508;13.454;2023-03-14T15:57:43;0.20;;;0.20;;
6537;SDS011;3302;52.508;13.454;2023-03-14T16:00:14;0.20;;;0.20;;
6537;SDS011;3302;52.508;13.454;2023-03-14T16:02:43;0.40;;;0.40;;
6537;SDS011;3302;52.508;13.454;2023-03-14T16:05:10;0.30;;;0.30;;
6537;SDS011;3302;52.508;13.454;2023-03-14T16:07:37;0.20;;;0.20;;
6537;SDS011;3302;52.508;13.454;2023-03-14T16:10:03;0.23;;;0.23;;
6537;SDS011;3302;52.508;13.454;2023-03-14T16:12:31;0.17;;;0.17;;
6537;SDS011;3302;52.508;13.454;2023-03-14T16:14:57;0.10;;;0.10;;
6537;SDS011;3302;52.508;13.454;2023-03-14T16:17:23;0.20;;;0.20;;
6537;SDS011;3302;52.508;13.454;2023-03-14T16:19:49;0.20;;;0.20;;
6537;SDS011;3302;52.508;13.454;2023-03-14T16:22:15;0.20;;;0.20;;
6537;SDS011;3302;52.508;13.454;2023-03-14T16:24:41;0.10;;;0.10;;